Leechburg, Pennsylvania
Current Conditions -  °F | °C
As of 7:55 PM on Monday 26 Jan 2015 (Local Time) from KBTP Reporting Station
Overcast Overcast  
Wind Chill: -9°   Ceiling: 900
Heat Index: -5°   Visibility: 2.5mi
Dew Point: -7°   Wind: 6mph
Humidity: 86%   Direction: 290°WNW
Pressure: 29.82"   Gusts: NA
Location:  40.63°N, 79.61°W
Report Text: KBTP 270055Z AUTO 29005KT 2 1/2SM BKN009 BKN015 OVC022 M05/M07 A2982 RMK AO1 P0001
Loading
Personal Weather Stations






























Interactive Weather Map New forecast layout! Learn more

10-Day Weather Forecast

Advertisements
Track Severe Weather on mobile